createdAt,value
2023-05-24T00:01:25.852Z,56.70
2023-05-24T00:03:59.072Z,56.75
2023-05-24T00:06:28.120Z,56.71
2023-05-24T00:08:56.657Z,56.81
2023-05-24T00:11:24.516Z,56.73
2023-05-24T00:13:52.411Z,56.83
2023-05-24T00:16:20.926Z,56.64
2023-05-24T00:18:49.222Z,56.45
2023-05-24T00:21:17.115Z,56.65
2023-05-24T00:23:45.623Z,56.76
2023-05-24T00:26:13.530Z,56.41
2023-05-24T00:28:41.562Z,56.49
2023-05-24T00:31:09.618Z,56.48
2023-05-24T00:33:37.467Z,56.52
2023-05-24T00:36:05.989Z,56.69
2023-05-24T00:38:34.081Z,56.56
2023-05-24T00:41:02.121Z,56.56
2023-05-24T00:43:30.007Z,56.67
2023-05-24T00:46:16.481Z,56.69
2023-05-24T00:48:45.774Z,56.90
2023-05-24T00:51:14.910Z,56.72
2023-05-24T00:53:46.300Z,56.74
2023-05-24T00:56:15.272Z,56.89
2023-05-24T00:58:44.123Z,56.81
2023-05-24T01:01:12.843Z,57.12
2023-05-24T01:03:41.816Z,57.10
2023-05-24T01:06:10.044Z,57.08
2023-05-24T01:08:53.143Z,57.24
2023-05-24T01:11:27.637Z,57.37
2023-05-24T01:14:14.475Z,57.73
2023-05-24T01:16:52.056Z,57.85
2023-05-24T01:19:32.172Z,57.83
2023-05-24T01:22:21.513Z,57.71
2023-05-24T01:25:27.999Z,57.59
2023-05-24T01:27:58.146Z,57.81
2023-05-24T01:30:28.789Z,57.66
2023-05-24T01:32:57.413Z,57.65
2023-05-24T01:35:25.454Z,57.41
2023-05-24T01:37:53.325Z,57.90
2023-05-24T01:40:21.250Z,58.23
2023-05-24T01:42:54.507Z,58.75
2023-05-24T01:45:31.478Z,58.78
2023-05-24T01:48:19.341Z,58.58
2023-05-24T01:50:57.906Z,58.76
2023-05-24T01:53:32.902Z,59.19
2023-05-24T01:56:06.303Z,59.36
2023-05-24T01:58:36.687Z,59.34
2023-05-24T02:01:05.138Z,59.46
2023-05-24T02:03:34.074Z,59.39
2023-05-24T02:06:03.832Z,59.60
2023-05-24T02:08:31.717Z,59.59
2023-05-24T02:10:59.597Z,59.49
2023-05-24T02:13:27.592Z,59.26
2023-05-24T02:15:55.465Z,59.25
2023-05-24T02:18:23.526Z,59.40
2023-05-24T02:20:51.452Z,59.41
2023-05-24T02:23:19.501Z,59.49
2023-05-24T02:25:47.358Z,59.77
2023-05-24T02:28:16.103Z,60.30
2023-05-24T02:30:44.833Z,60.35
2023-05-24T02:33:13.295Z,60.67
2023-05-24T02:35:41.670Z,60.79
2023-05-24T02:38:09.887Z,60.72
2023-05-24T02:40:37.796Z,60.60
2023-05-24T02:43:06.083Z,60.27
2023-05-24T02:45:34.077Z,60.14
2023-05-24T02:48:02.355Z,60.13
2023-05-24T02:50:30.377Z,60.08
2023-05-24T02:52:58.353Z,60.57
2023-05-24T02:55:27.034Z,61.12
2023-05-24T02:57:56.421Z,61.39
2023-05-24T03:00:25.488Z,61.82
2023-05-24T03:02:55.683Z,62.33
2023-05-24T03:05:23.712Z,62.49
2023-05-24T03:07:51.721Z,62.64
2023-05-24T03:10:20.591Z,62.76
2023-05-24T03:12:48.504Z,63.09
2023-05-24T03:15:16.654Z,63.39
2023-05-24T03:17:44.703Z,63.47
2023-05-24T03:20:13.170Z,63.61
2023-05-24T03:22:41.617Z,64.01
2023-05-24T03:25:09.970Z,64.18
2023-05-24T03:27:37.909Z,64.19
2023-05-24T03:30:06.867Z,64.38
2023-05-24T05:04:17.179Z,63.41
2023-05-24T05:06:45.265Z,61.57
2023-05-24T05:09:14.857Z,61.41
2023-05-24T05:11:43.491Z,60.42
2023-05-24T05:14:11.685Z,59.88
2023-05-24T05:16:39.671Z,59.21
2023-05-24T05:19:07.563Z,58.75
2023-05-24T05:21:36.519Z,58.42
2023-05-24T05:24:04.471Z,57.98
2023-05-24T05:26:32.543Z,57.80
2023-05-24T05:29:00.434Z,56.01
2023-05-24T05:31:29.857Z,54.67
2023-05-24T05:33:57.816Z,55.21
2023-05-24T05:36:25.789Z,55.11
2023-05-24T05:38:55.026Z,54.78
2023-05-24T05:41:23.019Z,53.94
2023-05-24T05:43:51.162Z,53.59
2023-05-24T05:46:21.004Z,54.16
2023-05-24T05:48:49.367Z,54.40
2023-05-24T05:51:17.485Z,53.34
2023-05-24T05:53:45.335Z,53.48
2023-05-24T05:56:13.229Z,53.35
2023-05-24T05:58:41.174Z,52.49
2023-05-24T06:01:09.050Z,52.52
2023-05-24T06:03:37.190Z,53.01
2023-05-24T06:06:05.383Z,52.32
2023-05-24T06:08:35.315Z,51.83
2023-05-24T06:11:03.699Z,52.23
2023-05-24T06:13:33.080Z,51.82
2023-05-24T06:16:01.399Z,51.14
2023-05-24T06:18:30.665Z,50.73
2023-05-24T06:20:58.681Z,51.40
2023-05-24T06:23:26.707Z,51.82
2023-05-24T06:25:54.726Z,51.33
2023-05-24T06:28:22.953Z,51.78
2023-05-24T06:30:50.963Z,51.59
2023-05-24T06:33:19.292Z,51.47
2023-05-24T06:35:47.299Z,50.93
2023-05-24T06:38:15.235Z,51.83
2023-05-24T06:40:43.338Z,52.42
2023-05-24T06:43:11.490Z,52.47
2023-05-24T06:45:42.480Z,52.58
2023-05-24T06:48:11.278Z,52.14
2023-05-24T06:50:42.347Z,51.95
2023-05-24T06:53:10.662Z,52.54
2023-05-24T06:55:38.615Z,52.69
2023-05-24T06:58:07.180Z,52.84
2023-05-24T07:00:35.033Z,52.37
2023-05-24T07:03:03.727Z,52.60
2023-05-24T07:05:31.754Z,52.68
2023-05-24T07:07:59.799Z,52.65
2023-05-24T07:10:27.866Z,52.46
2023-05-24T07:12:56.349Z,52.22
2023-05-24T07:15:24.251Z,51.90
2023-05-24T07:17:52.867Z,52.19
2023-05-24T07:20:20.988Z,51.96
2023-05-24T07:22:48.943Z,51.83
2023-05-24T07:25:17.618Z,51.96
2023-05-24T07:27:45.837Z,51.94
2023-05-24T07:30:27.696Z,51.59
2023-05-24T07:33:01.851Z,51.41
2023-05-24T07:35:31.232Z,50.92
2023-05-24T07:37:59.190Z,51.47
2023-05-24T07:40:27.169Z,51.53
2023-05-24T07:42:55.197Z,51.42
2023-05-24T07:45:23.084Z,51.21
2023-05-24T07:47:51.041Z,51.55
2023-05-24T07:50:19.236Z,50.87
2023-05-24T07:52:47.180Z,49.82
2023-05-24T07:55:16.246Z,48.80
2023-05-24T07:57:44.148Z,48.30
2023-05-24T08:00:14.990Z,48.38
2023-05-24T08:02:44.388Z,48.30
2023-05-24T08:05:13.572Z,48.28
2023-05-24T08:07:42.087Z,48.89
2023-05-24T08:10:14.167Z,49.46
2023-05-24T08:12:42.632Z,49.33
2023-05-24T08:15:10.990Z,49.15
2023-05-24T08:17:39.586Z,48.72
2023-05-24T08:20:09.836Z,48.51
2023-05-24T08:22:38.350Z,48.02
2023-05-24T08:25:06.948Z,48.26
2023-05-24T08:27:34.936Z,48.67
2023-05-24T08:30:04.452Z,48.67
2023-05-24T08:32:32.619Z,48.67
2023-05-24T08:35:14.863Z,49.21
2023-05-24T08:37:48.184Z,49.18
2023-05-24T08:40:16.811Z,49.16
2023-05-24T08:42:46.505Z,49.66
2023-05-24T08:45:16.054Z,50.31
2023-05-24T08:47:45.695Z,50.58
2023-05-24T08:50:13.702Z,50.54
2023-05-24T08:52:42.628Z,50.67
2023-05-24T08:55:11.692Z,50.01
2023-05-24T08:57:41.501Z,50.09
2023-05-24T09:00:12.065Z,50.13
2023-05-24T09:02:42.116Z,49.58
2023-05-24T09:05:12.638Z,49.13
2023-05-24T09:07:43.853Z,49.08
2023-05-24T09:10:12.081Z,48.93
2023-05-24T09:12:44.806Z,48.92
2023-05-24T09:15:12.995Z,49.06
2023-05-24T09:17:40.965Z,49.10
2023-05-24T09:20:10.455Z,49.21
2023-05-24T09:22:42.514Z,48.81
2023-05-24T09:25:14.362Z,49.38
2023-05-24T09:27:45.056Z,49.37
2023-05-24T09:30:15.698Z,49.36
2023-05-24T09:33:01.333Z,49.62
2023-05-24T09:35:29.882Z,49.88
2023-05-24T09:38:00.054Z,49.66
2023-05-24T09:40:29.538Z,50.42
2023-05-24T09:43:09.703Z,50.37
2023-05-24T09:45:47.544Z,50.35
2023-05-24T09:48:20.290Z,50.65
2023-05-24T09:51:00.551Z,50.57
2023-05-24T09:53:28.851Z,50.89
2023-05-24T09:55:56.871Z,51.12
2023-05-24T09:58:30.386Z,51.29
2023-05-24T10:01:10.998Z,50.51
2023-05-24T10:03:39.366Z,50.67
2023-05-24T10:06:07.931Z,50.39
2023-05-24T10:08:36.736Z,50.46
2023-05-24T10:11:05.838Z,50.17
2023-05-24T10:13:36.358Z,50.06
2023-05-24T10:16:04.675Z,49.97
2023-05-24T10:18:32.974Z,49.99
2023-05-24T10:21:02.966Z,49.85
2023-05-24T10:23:32.629Z,50.05
2023-05-24T10:26:08.213Z,49.92
2023-05-24T10:28:42.616Z,49.80
2023-05-24T10:31:16.113Z,50.76
2023-05-24T10:33:46.463Z,51.34
2023-05-24T10:36:16.236Z,50.24
2023-05-24T10:38:47.180Z,50.49
2023-05-24T10:41:15.555Z,50.50
2023-05-24T10:43:56.686Z,49.19
2023-05-24T10:46:29.478Z,49.38
2023-05-24T10:49:01.535Z,49.04
2023-05-24T10:51:38.805Z,48.17
2023-05-24T10:54:27.459Z,48.73
2023-05-24T10:56:57.037Z,49.04
2023-05-24T10:59:40.080Z,48.90
2023-05-24T11:02:14.161Z,49.12
2023-05-24T11:04:46.427Z,48.92
2023-05-24T11:07:15.876Z,47.73
2023-05-24T11:09:46.915Z,46.88
2023-05-24T11:12:20.852Z,47.43
2023-05-24T11:14:50.783Z,47.06
2023-05-24T11:17:22.457Z,47.48
2023-05-24T11:19:55.355Z,47.39
2023-05-24T11:22:27.066Z,47.64
2023-05-24T11:24:55.232Z,46.95
2023-05-24T11:27:24.310Z,47.28
2023-05-24T11:29:52.853Z,46.56
2023-05-24T11:32:22.026Z,46.82
2023-05-24T11:34:51.197Z,47.46
2023-05-24T11:37:22.507Z,47.49
2023-05-24T11:39:56.921Z,47.89
2023-05-24T11:42:24.930Z,47.26
2023-05-24T11:44:53.664Z,47.06
2023-05-24T11:47:22.683Z,47.22
2023-05-24T11:49:52.007Z,47.55
2023-05-24T11:52:20.396Z,47.73
2023-05-24T11:54:49.698Z,47.21
2023-05-24T11:57:22.939Z,47.00
2023-05-24T11:59:50.993Z,47.04
2023-05-24T12:02:19.920Z,47.85
2023-05-24T12:04:47.907Z,47.90
2023-05-24T12:07:16.649Z,48.17
2023-05-24T12:09:44.836Z,47.78
2023-05-24T12:12:12.912Z,47.58
2023-05-24T12:14:40.900Z,47.63
2023-05-24T12:17:16.446Z,49.28
2023-05-24T12:19:44.983Z,50.40
2023-05-24T12:22:13.054Z,50.29
2023-05-24T12:24:42.547Z,50.49
2023-05-24T12:27:11.430Z,50.26
2023-05-24T12:29:42.640Z,49.96
2023-05-24T12:32:15.533Z,50.27
2023-05-24T12:34:45.106Z,50.86
2023-05-24T12:37:17.713Z,50.64
2023-05-24T12:39:45.703Z,50.85
2023-05-24T12:42:13.870Z,50.62
2023-05-24T12:44:42.481Z,51.13
2023-05-24T12:47:10.632Z,51.65
2023-05-24T12:49:38.784Z,51.95
2023-05-24T12:52:07.168Z,52.32
2023-05-24T12:54:35.626Z,52.27
2023-05-24T12:57:03.807Z,52.34
2023-05-24T12:59:34.079Z,52.92
2023-05-24T13:02:02.318Z,52.84
2023-05-24T13:04:33.818Z,52.42
2023-05-24T13:07:03.227Z,52.20
2023-05-24T13:09:31.234Z,52.73
2023-05-24T13:11:59.326Z,52.89
2023-05-24T13:14:27.560Z,53.00
2023-05-24T13:16:55.816Z,53.55
2023-05-24T13:19:23.824Z,53.59
2023-05-24T13:21:52.042Z,53.73
2023-05-24T13:24:20.405Z,54.02
2023-05-24T13:26:49.356Z,53.92
2023-05-24T13:29:34.223Z,53.54
2023-05-24T13:32:05.214Z,54.24
2023-05-24T13:34:33.476Z,53.48
2023-05-24T13:37:01.806Z,53.36
2023-05-24T13:39:29.826Z,53.65
2023-05-24T13:41:57.842Z,53.03
2023-05-24T13:44:25.759Z,52.35
2023-05-24T13:46:54.466Z,51.91
2023-05-24T13:49:22.781Z,51.54
2023-05-24T13:51:51.153Z,51.68
2023-05-24T13:54:19.121Z,51.37
2023-05-24T13:56:49.106Z,51.23
2023-05-24T13:59:17.483Z,51.32
2023-05-24T14:01:45.837Z,50.58
2023-05-24T14:04:13.849Z,50.75
2023-05-24T14:06:41.767Z,50.34
2023-05-24T14:09:10.100Z,50.45
2023-05-24T14:11:38.003Z,49.98
2023-05-24T14:16:37.452Z,49.78
2023-05-24T14:19:05.902Z,49.89
2023-05-24T14:21:33.985Z,49.90
2023-05-24T14:24:02.294Z,50.17
2023-05-24T14:26:31.230Z,50.66
2023-05-24T14:28:59.319Z,50.33
2023-05-24T14:31:27.660Z,50.57
2023-05-24T14:33:55.633Z,50.72
2023-05-24T14:36:23.622Z,50.79
2023-05-24T14:38:51.821Z,51.14
2023-05-24T14:41:19.803Z,51.34
2023-05-24T14:43:47.705Z,51.15
2023-05-24T14:46:15.776Z,51.08
2023-05-24T14:48:44.089Z,50.99
2023-05-24T14:51:12.039Z,50.98
2023-05-24T14:53:39.978Z,51.28
2023-05-24T14:56:10.015Z,51.52
2023-05-24T14:58:38.146Z,51.54
2023-05-24T15:01:07.087Z,52.07
2023-05-24T15:03:36.161Z,52.31
2023-05-24T15:06:05.466Z,52.20
2023-05-24T15:08:34.523Z,52.62
2023-05-24T15:11:02.778Z,53.04
2023-05-24T15:13:31.235Z,53.14
2023-05-24T15:16:00.650Z,53.35
2023-05-24T15:18:31.761Z,53.35
2023-05-24T15:20:59.897Z,53.68
2023-05-24T15:23:28.483Z,53.88
2023-05-24T15:25:56.457Z,54.06
2023-05-24T15:28:26.416Z,54.29
2023-05-24T15:30:55.029Z,54.62
2023-05-24T15:33:23.292Z,54.39
2023-05-24T15:35:51.448Z,54.50
2023-05-24T15:38:19.428Z,54.60
2023-05-24T15:40:47.429Z,54.92
2023-05-24T15:43:17.703Z,55.24
2023-05-24T15:45:46.423Z,55.11
2023-05-24T15:48:14.458Z,54.98
2023-05-24T15:53:13.224Z,55.57
2023-05-24T15:55:41.452Z,55.42
2023-05-24T15:58:09.478Z,55.45
2023-05-24T16:00:37.451Z,55.87
2023-05-24T16:03:06.708Z,55.88
2023-05-24T16:05:34.919Z,55.93
2023-05-24T16:08:03.108Z,55.89
2023-05-24T16:10:31.017Z,56.13
2023-05-24T16:12:59.140Z,56.30
2023-05-24T16:15:30.107Z,56.60
2023-05-24T16:17:58.255Z,56.79
2023-05-24T16:20:26.591Z,57.08
2023-05-24T16:22:54.626Z,57.34
2023-05-24T16:25:22.622Z,57.53
2023-05-24T16:27:50.499Z,57.80
2023-05-24T16:30:18.671Z,58.04
2023-05-24T16:32:46.722Z,58.21
2023-05-24T16:35:14.695Z,58.50
2023-05-24T16:37:43.148Z,58.67
2023-05-24T16:40:11.998Z,58.97
2023-05-24T16:42:40.136Z,58.99
2023-05-24T16:45:08.547Z,59.10
2023-05-24T16:47:36.896Z,59.16
2023-05-24T16:50:05.677Z,59.17
2023-05-24T16:52:33.953Z,59.30
2023-05-24T16:55:01.957Z,59.31
2023-05-24T16:57:29.995Z,59.21
2023-05-24T16:59:58.296Z,59.56
2023-05-24T17:02:26.517Z,59.53
2023-05-24T17:04:54.884Z,59.78
2023-05-24T17:07:22.995Z,59.98
2023-05-24T17:09:51.908Z,60.17
2023-05-24T17:12:21.879Z,60.20
2023-05-24T17:14:49.780Z,60.16
2023-05-24T17:17:17.713Z,60.16
2023-05-24T17:19:45.844Z,60.41
2023-05-24T17:22:13.788Z,60.60
2023-05-24T17:24:41.788Z,60.64
2023-05-24T17:27:09.934Z,60.77
2023-05-24T17:29:38.009Z,60.69
2023-05-24T17:32:06.028Z,60.95
2023-05-24T17:34:34.139Z,61.27
2023-05-24T17:37:02.216Z,61.47
2023-05-24T17:39:30.126Z,61.67
2023-05-24T17:41:58.113Z,61.69
2023-05-24T17:44:26.268Z,61.78
2023-05-24T17:46:54.455Z,62.00
2023-05-24T17:49:22.471Z,62.11
2023-05-24T17:51:50.657Z,62.20
2023-05-24T17:54:18.806Z,62.15
2023-05-24T17:56:46.786Z,62.38
2023-05-24T17:59:14.846Z,62.61
2023-05-24T18:01:44.130Z,62.74
2023-05-24T18:04:12.295Z,62.84
2023-05-24T18:06:40.232Z,62.99
2023-05-24T18:09:08.378Z,63.12
2023-05-24T18:11:36.806Z,63.18
2023-05-24T18:14:04.787Z,63.43
2023-05-24T18:16:33.326Z,63.69
2023-05-24T18:19:01.510Z,63.96
2023-05-24T18:21:29.568Z,64.01
2023-05-24T18:23:57.656Z,64.12
2023-05-24T18:26:25.851Z,64.45
2023-05-24T18:28:53.926Z,64.42
2023-05-24T18:31:22.063Z,64.68
2023-05-24T18:33:50.112Z,64.95
2023-05-24T18:36:18.256Z,65.11
2023-05-24T18:38:47.527Z,65.23
2023-05-24T18:41:16.634Z,65.44
2023-05-24T18:43:44.683Z,65.95
2023-05-24T18:46:14.197Z,65.79
2023-05-24T18:48:42.614Z,66.08
2023-05-24T18:51:10.866Z,66.28
2023-05-24T18:53:40.257Z,66.39
2023-05-24T18:56:08.309Z,66.54
2023-05-24T18:58:36.397Z,66.72
2023-05-24T19:01:04.628Z,66.92
2023-05-24T19:03:32.901Z,67.00
2023-05-24T19:06:00.869Z,67.27
2023-05-24T19:08:28.953Z,67.31
2023-05-24T19:10:57.113Z,67.61
2023-05-24T19:13:26.018Z,67.79
2023-05-24T19:15:54.139Z,67.87
2023-05-24T19:18:23.081Z,68.09
2023-05-24T19:20:51.603Z,68.17
2023-05-24T19:23:19.553Z,68.41
2023-05-24T19:25:50.208Z,68.76
2023-05-24T19:28:18.360Z,68.65
2023-05-24T19:30:46.416Z,68.92
2023-05-24T19:33:14.558Z,69.06
2023-05-24T19:35:42.774Z,69.31
2023-05-24T19:38:10.959Z,69.45
2023-05-24T19:40:39.082Z,69.50
2023-05-24T19:43:07.089Z,69.75
2023-05-24T19:45:35.078Z,69.78
2023-05-24T19:48:05.102Z,69.91
2023-05-24T19:50:33.193Z,69.94
2023-05-24T19:53:01.381Z,70.06
2023-05-24T19:55:29.748Z,70.24
2023-05-24T19:57:58.419Z,70.49
2023-05-24T20:00:26.544Z,70.68
2023-05-24T20:02:54.498Z,70.37
2023-05-24T20:05:22.791Z,70.74
2023-05-24T20:07:51.126Z,70.75
2023-05-24T20:10:19.069Z,70.94
2023-05-24T20:12:47.175Z,70.86
2023-05-24T20:15:18.230Z,71.05
2023-05-24T20:17:46.159Z,71.03
2023-05-24T20:20:14.642Z,71.22
2023-05-24T20:22:42.684Z,71.49
2023-05-24T20:25:11.076Z,71.49
2023-05-24T20:27:40.901Z,71.72
2023-05-24T20:30:10.923Z,71.51
2023-05-24T20:32:39.238Z,71.67
2023-05-24T20:35:07.980Z,71.80
2023-05-24T20:37:36.570Z,71.67
2023-05-24T20:40:05.823Z,71.86
2023-05-24T20:42:34.079Z,71.79
2023-05-24T20:45:03.537Z,71.83
2023-05-24T20:47:31.557Z,72.00
2023-05-24T20:49:59.661Z,72.38
2023-05-24T20:52:27.789Z,72.33
2023-05-24T20:54:55.679Z,72.33
2023-05-24T20:57:23.714Z,72.32
2023-05-24T20:59:52.106Z,72.41
2023-05-24T21:02:21.768Z,72.55
2023-05-24T21:04:49.765Z,72.49
2023-05-24T21:07:17.684Z,72.66
2023-05-24T21:09:45.603Z,72.73
2023-05-24T21:12:13.740Z,72.74
2023-05-24T21:14:41.848Z,72.75
2023-05-24T21:17:09.733Z,73.02
2023-05-24T21:19:37.875Z,72.93
2023-05-24T21:22:06.231Z,73.43
2023-05-24T21:24:34.245Z,73.32
2023-05-24T21:27:02.148Z,73.34
2023-05-24T21:29:30.141Z,73.47
2023-05-24T21:31:58.109Z,73.61
2023-05-24T21:34:27.428Z,73.69
2023-05-24T21:36:55.592Z,73.77
2023-05-24T21:39:23.549Z,73.75
2023-05-24T21:41:51.612Z,73.85
2023-05-24T21:44:19.580Z,73.93
2023-05-24T21:46:47.539Z,73.91
2023-05-24T21:49:17.306Z,73.98
2023-05-24T21:51:45.331Z,74.15
2023-05-24T21:54:13.250Z,74.23
2023-05-24T21:56:41.223Z,74.35
2023-05-24T21:59:09.109Z,74.44
2023-05-24T22:01:37.365Z,74.50
2023-05-24T22:04:05.958Z,74.73
2023-05-24T22:06:34.034Z,74.83
2023-05-24T22:09:02.201Z,74.93
2023-05-24T22:11:30.297Z,75.06
2023-05-24T22:13:58.234Z,74.98
2023-05-24T22:16:26.164Z,75.30
2023-05-24T22:18:57.204Z,75.30
2023-05-24T22:21:26.263Z,75.24
2023-05-24T22:23:54.209Z,75.39
2023-05-24T22:26:22.806Z,75.37
2023-05-24T22:28:55.769Z,75.42
2023-05-24T22:31:25.572Z,75.67
2023-05-24T22:33:53.578Z,75.53
2023-05-24T22:36:21.544Z,75.50
2023-05-24T22:38:49.653Z,75.64
2023-05-24T22:41:17.589Z,75.82
2023-05-24T22:43:45.493Z,75.92
2023-05-24T22:46:13.521Z,75.92
2023-05-24T22:48:41.615Z,75.86
2023-05-24T22:51:12.218Z,76.10
2023-05-24T22:53:40.251Z,76.24
2023-05-24T22:56:10.605Z,76.16
2023-05-24T22:58:38.941Z,76.27
2023-05-24T23:01:06.886Z,76.33
2023-05-24T23:03:35.160Z,76.46
2023-05-24T23:06:04.621Z,76.60
2023-05-24T23:08:33.806Z,76.66
2023-05-24T23:11:01.769Z,76.80
2023-05-24T23:13:33.375Z,76.77
2023-05-24T23:16:01.393Z,76.83
2023-05-24T23:18:29.478Z,76.95
2023-05-24T23:20:57.957Z,77.04
2023-05-24T23:23:27.280Z,77.19
2023-05-24T23:25:55.348Z,77.37
2023-05-24T23:28:23.204Z,77.59
2023-05-24T23:30:51.504Z,77.51
2023-05-24T23:33:20.237Z,77.51
2023-05-24T23:35:48.268Z,77.73
2023-05-24T23:38:16.287Z,77.75
2023-05-24T23:40:44.155Z,77.87
2023-05-24T23:43:12.076Z,77.81
2023-05-24T23:45:39.984Z,77.90
2023-05-24T23:48:07.936Z,78.07
2023-05-24T23:50:50.242Z,78.23
2023-05-24T23:53:21.934Z,78.28
2023-05-24T23:55:49.898Z,78.45
2023-05-24T23:58:17.855Z,78.61
